sensor_id;sensor_type;location;lat;lon;timestamp;P1;durP1;ratioP1;P2;durP2;ratioP2
21647;SDS011;10985;54.182;7.890;2024-03-22T00:01:08;15.00;;;13.43;;
21647;SDS011;10985;54.182;7.890;2024-03-22T00:03:34;17.05;;;14.57;;
21647;SDS011;10985;54.182;7.890;2024-03-22T00:06:00;19.13;;;15.82;;
21647;SDS011;10985;54.182;7.890;2024-03-22T00:08:25;18.48;;;14.80;;
21647;SDS011;10985;54.182;7.890;2024-03-22T00:10:51;16.48;;;14.25;;
21647;SDS011;10985;54.182;7.890;2024-03-22T00:13:16;18.08;;;15.40;;
21647;SDS011;10985;54.182;7.890;2024-03-22T00:15:42;20.38;;;16.25;;
21647;SDS011;10985;54.182;7.890;2024-03-22T00:18:09;18.45;;;15.40;;
21647;SDS011;10985;54.182;7.890;2024-03-22T00:20:35;20.95;;;16.05;;
21647;SDS011;10985;54.182;7.890;2024-03-22T00:23:00;19.88;;;15.85;;
21647;SDS011;10985;54.182;7.890;2024-03-22T00:25:26;19.65;;;15.65;;
21647;SDS011;10985;54.182;7.890;2024-03-22T00:27:51;20.15;;;16.40;;
21647;SDS011;10985;54.182;7.890;2024-03-22T00:30:17;20.05;;;16.35;;
21647;SDS011;10985;54.182;7.890;2024-03-22T00:32:42;24.02;;;16.73;;
21647;SDS011;10985;54.182;7.890;2024-03-22T00:35:10;19.42;;;15.85;;
21647;SDS011;10985;54.182;7.890;2024-03-22T00:37:36;20.05;;;16.90;;
21647;SDS011;10985;54.182;7.890;2024-03-22T00:40:01;21.52;;;15.82;;
21647;SDS011;10985;54.182;7.890;2024-03-22T00:42:27;19.38;;;16.10;;
21647;SDS011;10985;54.182;7.890;2024-03-22T00:44:52;19.63;;;15.82;;
21647;SDS011;10985;54.182;7.890;2024-03-22T00:47:20;17.35;;;14.95;;
21647;SDS011;10985;54.182;7.890;2024-03-22T00:49:45;20.67;;;16.75;;
21647;SDS011;10985;54.182;7.890;2024-03-22T00:52:11;21.27;;;17.33;;
21647;SDS011;10985;54.182;7.890;2024-03-22T00:54:36;20.75;;;16.63;;
21647;SDS011;10985;54.182;7.890;2024-03-22T00:57:04;23.15;;;17.88;;
21647;SDS011;10985;54.182;7.890;2024-03-22T00:59:29;22.85;;;17.25;;
21647;SDS011;10985;54.182;7.890;2024-03-22T01:01:55;22.42;;;16.65;;
21647;SDS011;10985;54.182;7.890;2024-03-22T01:04:20;23.52;;;18.08;;
21647;SDS011;10985;54.182;7.890;2024-03-22T01:06:46;25.40;;;18.67;;
21647;SDS011;10985;54.182;7.890;2024-03-22T01:09:11;21.98;;;18.02;;
21647;SDS011;10985;54.182;7.890;2024-03-22T01:11:37;23.25;;;18.45;;
21647;SDS011;10985;54.182;7.890;2024-03-22T01:14:02;24.77;;;18.45;;
21647;SDS011;10985;54.182;7.890;2024-03-22T01:16:28;24.17;;;18.73;;
21647;SDS011;10985;54.182;7.890;2024-03-22T01:18:53;24.30;;;18.10;;
21647;SDS011;10985;54.182;7.890;2024-03-22T01:21:19;28.33;;;20.23;;
21647;SDS011;10985;54.182;7.890;2024-03-22T01:23:49;24.52;;;19.05;;
21647;SDS011;10985;54.182;7.890;2024-03-22T01:26:18;25.60;;;19.40;;
21647;SDS011;10985;54.182;7.890;2024-03-22T01:28:43;24.02;;;18.55;;
21647;SDS011;10985;54.182;7.890;2024-03-22T01:31:09;30.45;;;21.02;;
21647;SDS011;10985;54.182;7.890;2024-03-22T01:33:34;25.92;;;19.27;;
21647;SDS011;10985;54.182;7.890;2024-03-22T01:36:00;29.92;;;20.90;;
21647;SDS011;10985;54.182;7.890;2024-03-22T01:38:25;26.83;;;20.23;;
21647;SDS011;10985;54.182;7.890;2024-03-22T01:40:51;28.00;;;21.02;;
21647;SDS011;10985;54.182;7.890;2024-03-22T01:43:16;26.63;;;19.85;;
21647;SDS011;10985;54.182;7.890;2024-03-22T01:45:42;30.05;;;21.88;;
21647;SDS011;10985;54.182;7.890;2024-03-22T01:48:07;28.67;;;20.15;;
21647;SDS011;10985;54.182;7.890;2024-03-22T01:50:33;29.33;;;20.55;;
21647;SDS011;10985;54.182;7.890;2024-03-22T01:52:59;29.30;;;20.52;;
21647;SDS011;10985;54.182;7.890;2024-03-22T01:55:26;30.42;;;21.02;;
21647;SDS011;10985;54.182;7.890;2024-03-22T01:57:53;27.27;;;20.05;;
21647;SDS011;10985;54.182;7.890;2024-03-22T02:00:19;28.75;;;21.33;;
21647;SDS011;10985;54.182;7.890;2024-03-22T02:02:45;30.15;;;20.77;;
21647;SDS011;10985;54.182;7.890;2024-03-22T02:05:14;29.60;;;20.77;;
21647;SDS011;10985;54.182;7.890;2024-03-22T02:07:41;31.23;;;21.33;;
21647;SDS011;10985;54.182;7.890;2024-03-22T02:10:07;32.30;;;21.92;;
21647;SDS011;10985;54.182;7.890;2024-03-22T02:12:35;31.13;;;21.05;;
21647;SDS011;10985;54.182;7.890;2024-03-22T02:15:02;32.80;;;22.00;;
21647;SDS011;10985;54.182;7.890;2024-03-22T02:17:28;29.77;;;21.58;;
21647;SDS011;10985;54.182;7.890;2024-03-22T02:19:53;29.73;;;21.08;;
21647;SDS011;10985;54.182;7.890;2024-03-22T02:22:19;28.98;;;21.55;;
21647;SDS011;10985;54.182;7.890;2024-03-22T02:24:44;30.83;;;21.92;;
21647;SDS011;10985;54.182;7.890;2024-03-22T02:27:10;29.95;;;20.00;;
21647;SDS011;10985;54.182;7.890;2024-03-22T02:29:35;29.60;;;21.42;;
21647;SDS011;10985;54.182;7.890;2024-03-22T02:32:01;30.05;;;21.80;;
21647;SDS011;10985;54.182;7.890;2024-03-22T02:34:26;30.55;;;21.95;;
21647;SDS011;10985;54.182;7.890;2024-03-22T02:36:51;31.70;;;20.48;;
21647;SDS011;10985;54.182;7.890;2024-03-22T02:39:17;32.30;;;20.90;;
21647;SDS011;10985;54.182;7.890;2024-03-22T02:41:42;27.95;;;19.98;;
21647;SDS011;10985;54.182;7.890;2024-03-22T02:44:08;29.63;;;19.70;;
21647;SDS011;10985;54.182;7.890;2024-03-22T02:46:33;31.10;;;20.95;;
21647;SDS011;10985;54.182;7.890;2024-03-22T02:48:59;27.95;;;20.23;;
21647;SDS011;10985;54.182;7.890;2024-03-22T02:51:25;30.40;;;20.48;;
21647;SDS011;10985;54.182;7.890;2024-03-22T02:53:50;27.65;;;19.80;;
21647;SDS011;10985;54.182;7.890;2024-03-22T02:56:16;27.65;;;19.73;;
21647;SDS011;10985;54.182;7.890;2024-03-22T02:58:41;29.73;;;19.30;;
21647;SDS011;10985;54.182;7.890;2024-03-22T03:01:07;27.58;;;19.20;;
21647;SDS011;10985;54.182;7.890;2024-03-22T03:03:32;29.13;;;19.58;;
21647;SDS011;10985;54.182;7.890;2024-03-22T03:05:58;28.63;;;19.63;;
21647;SDS011;10985;54.182;7.890;2024-03-22T03:08:23;30.40;;;20.38;;
21647;SDS011;10985;54.182;7.890;2024-03-22T03:10:49;29.92;;;20.92;;
21647;SDS011;10985;54.182;7.890;2024-03-22T03:13:14;30.52;;;21.33;;
21647;SDS011;10985;54.182;7.890;2024-03-22T03:15:40;30.52;;;20.15;;
21647;SDS011;10985;54.182;7.890;2024-03-22T03:18:06;28.95;;;21.40;;
21647;SDS011;10985;54.182;7.890;2024-03-22T03:20:31;29.90;;;20.30;;
21647;SDS011;10985;54.182;7.890;2024-03-22T03:22:57;32.47;;;21.25;;
21647;SDS011;10985;54.182;7.890;2024-03-22T03:25:24;25.63;;;18.27;;
21647;SDS011;10985;54.182;7.890;2024-03-22T03:27:52;29.73;;;19.42;;
21647;SDS011;10985;54.182;7.890;2024-03-22T03:30:18;28.08;;;19.08;;
21647;SDS011;10985;54.182;7.890;2024-03-22T03:32:44;30.27;;;18.90;;
21647;SDS011;10985;54.182;7.890;2024-03-22T03:35:09;31.15;;;19.73;;
21647;SDS011;10985;54.182;7.890;2024-03-22T03:37:35;27.88;;;18.83;;
21647;SDS011;10985;54.182;7.890;2024-03-22T03:40:00;31.15;;;20.33;;
21647;SDS011;10985;54.182;7.890;2024-03-22T03:42:26;27.40;;;19.27;;
21647;SDS011;10985;54.182;7.890;2024-03-22T03:44:51;27.73;;;19.33;;
21647;SDS011;10985;54.182;7.890;2024-03-22T03:47:17;28.95;;;19.98;;
21647;SDS011;10985;54.182;7.890;2024-03-22T03:49:44;29.92;;;18.83;;
21647;SDS011;10985;54.182;7.890;2024-03-22T03:52:10;27.67;;;17.48;;
21647;SDS011;10985;54.182;7.890;2024-03-22T03:54:36;27.55;;;18.77;;
21647;SDS011;10985;54.182;7.890;2024-03-22T03:57:01;29.58;;;18.38;;
21647;SDS011;10985;54.182;7.890;2024-03-22T03:59:27;27.60;;;17.70;;
21647;SDS011;10985;54.182;7.890;2024-03-22T04:01:52;28.83;;;18.55;;
21647;SDS011;10985;54.182;7.890;2024-03-22T04:04:18;32.92;;;19.27;;
21647;SDS011;10985;54.182;7.890;2024-03-22T04:06:44;29.20;;;19.17;;
21647;SDS011;10985;54.182;7.890;2024-03-22T04:09:09;30.25;;;19.35;;
21647;SDS011;10985;54.182;7.890;2024-03-22T04:11:35;29.83;;;18.60;;
21647;SDS011;10985;54.182;7.890;2024-03-22T04:14:02;29.42;;;18.95;;
21647;SDS011;10985;54.182;7.890;2024-03-22T04:16:28;28.27;;;19.35;;
21647;SDS011;10985;54.182;7.890;2024-03-22T04:18:53;29.65;;;19.17;;
21647;SDS011;10985;54.182;7.890;2024-03-22T04:21:19;30.00;;;19.35;;
21647;SDS011;10985;54.182;7.890;2024-03-22T04:23:44;30.02;;;19.33;;
21647;SDS011;10985;54.182;7.890;2024-03-22T04:26:10;32.47;;;19.75;;
21647;SDS011;10985;54.182;7.890;2024-03-22T04:28:35;30.40;;;19.52;;
21647;SDS011;10985;54.182;7.890;2024-03-22T04:33:27;30.02;;;19.40;;
21647;SDS011;10985;54.182;7.890;2024-03-22T04:35:54;31.65;;;18.92;;
21647;SDS011;10985;54.182;7.890;2024-03-22T04:38:21;29.08;;;18.02;;
21647;SDS011;10985;54.182;7.890;2024-03-22T04:40:46;33.72;;;18.63;;
21647;SDS011;10985;54.182;7.890;2024-03-22T04:43:12;27.52;;;17.38;;
21647;SDS011;10985;54.182;7.890;2024-03-22T04:45:37;28.80;;;17.50;;
21647;SDS011;10985;54.182;7.890;2024-03-22T04:48:03;28.33;;;17.45;;
21647;SDS011;10985;54.182;7.890;2024-03-22T04:50:30;31.50;;;17.85;;
21647;SDS011;10985;54.182;7.890;2024-03-22T04:52:56;25.88;;;16.27;;
21647;SDS011;10985;54.182;7.890;2024-03-22T04:55:21;26.48;;;16.30;;
21647;SDS011;10985;54.182;7.890;2024-03-22T04:57:47;26.20;;;15.95;;
21647;SDS011;10985;54.182;7.890;2024-03-22T05:00:13;29.10;;;16.23;;
21647;SDS011;10985;54.182;7.890;2024-03-22T05:02:39;26.70;;;14.90;;
21647;SDS011;10985;54.182;7.890;2024-03-22T05:05:05;23.52;;;14.02;;
21647;SDS011;10985;54.182;7.890;2024-03-22T05:07:30;28.13;;;15.38;;
21647;SDS011;10985;54.182;7.890;2024-03-22T05:09:56;23.98;;;15.07;;
21647;SDS011;10985;54.182;7.890;2024-03-22T05:12:22;26.63;;;15.38;;
21647;SDS011;10985;54.182;7.890;2024-03-22T05:14:47;22.85;;;13.73;;
21647;SDS011;10985;54.182;7.890;2024-03-22T05:17:13;23.90;;;14.45;;
21647;SDS011;10985;54.182;7.890;2024-03-22T05:19:38;20.63;;;13.25;;
21647;SDS011;10985;54.182;7.890;2024-03-22T05:22:03;20.90;;;11.75;;
21647;SDS011;10985;54.182;7.890;2024-03-22T05:24:29;23.75;;;13.52;;
21647;SDS011;10985;54.182;7.890;2024-03-22T05:26:55;19.70;;;12.85;;
21647;SDS011;10985;54.182;7.890;2024-03-22T05:29:20;20.17;;;12.35;;
21647;SDS011;10985;54.182;7.890;2024-03-22T05:31:46;20.25;;;11.82;;
21647;SDS011;10985;54.182;7.890;2024-03-22T05:34:16;17.95;;;11.90;;
21647;SDS011;10985;54.182;7.890;2024-03-22T05:36:42;20.42;;;12.15;;
21647;SDS011;10985;54.182;7.890;2024-03-22T05:39:08;19.80;;;12.00;;
21647;SDS011;10985;54.182;7.890;2024-03-22T05:41:36;18.58;;;11.32;;
21647;SDS011;10985;54.182;7.890;2024-03-22T05:44:01;17.20;;;11.02;;
21647;SDS011;10985;54.182;7.890;2024-03-22T05:46:27;18.67;;;11.35;;
21647;SDS011;10985;54.182;7.890;2024-03-22T05:48:53;21.13;;;11.65;;
21647;SDS011;10985;54.182;7.890;2024-03-22T05:51:19;17.60;;;11.63;;
21647;SDS011;10985;54.182;7.890;2024-03-22T05:53:44;17.98;;;11.27;;
21647;SDS011;10985;54.182;7.890;2024-03-22T05:56:10;16.38;;;10.65;;
21647;SDS011;10985;54.182;7.890;2024-03-22T05:58:35;14.63;;;9.88;;
21647;SDS011;10985;54.182;7.890;2024-03-22T06:01:01;18.15;;;10.75;;
21647;SDS011;10985;54.182;7.890;2024-03-22T06:03:28;15.73;;;9.52;;
21647;SDS011;10985;54.182;7.890;2024-03-22T06:05:54;15.00;;;10.18;;
21647;SDS011;10985;54.182;7.890;2024-03-22T06:08:21;18.38;;;9.88;;
21647;SDS011;10985;54.182;7.890;2024-03-22T06:10:47;17.35;;;10.10;;
21647;SDS011;10985;54.182;7.890;2024-03-22T06:13:13;13.48;;;9.90;;
21647;SDS011;10985;54.182;7.890;2024-03-22T06:15:38;15.15;;;9.45;;
21647;SDS011;10985;54.182;7.890;2024-03-22T06:18:10;14.88;;;9.60;;
21647;SDS011;10985;54.182;7.890;2024-03-22T06:20:36;17.90;;;10.13;;
21647;SDS011;10985;54.182;7.890;2024-03-22T06:23:01;17.08;;;9.82;;
21647;SDS011;10985;54.182;7.890;2024-03-22T06:25:27;11.95;;;8.88;;
21647;SDS011;10985;54.182;7.890;2024-03-22T06:27:52;13.48;;;9.65;;
21647;SDS011;10985;54.182;7.890;2024-03-22T06:30:18;14.15;;;9.70;;
21647;SDS011;10985;54.182;7.890;2024-03-22T06:32:43;14.90;;;9.18;;
21647;SDS011;10985;54.182;7.890;2024-03-22T06:35:09;13.55;;;9.05;;
21647;SDS011;10985;54.182;7.890;2024-03-22T06:37:36;16.92;;;8.95;;
21647;SDS011;10985;54.182;7.890;2024-03-22T06:40:02;19.77;;;10.45;;
21647;SDS011;10985;54.182;7.890;2024-03-22T06:42:30;17.52;;;9.80;;
21647;SDS011;10985;54.182;7.890;2024-03-22T06:44:55;14.13;;;9.20;;
21647;SDS011;10985;54.182;7.890;2024-03-22T06:47:21;15.52;;;9.45;;
21647;SDS011;10985;54.182;7.890;2024-03-22T06:49:46;12.85;;;8.88;;
21647;SDS011;10985;54.182;7.890;2024-03-22T06:52:12;13.30;;;9.20;;
21647;SDS011;10985;54.182;7.890;2024-03-22T06:54:37;12.13;;;9.63;;
21647;SDS011;10985;54.182;7.890;2024-03-22T06:57:03;15.48;;;10.32;;
21647;SDS011;10985;54.182;7.890;2024-03-22T06:59:29;14.45;;;9.85;;
21647;SDS011;10985;54.182;7.890;2024-03-22T07:01:54;14.63;;;9.55;;
21647;SDS011;10985;54.182;7.890;2024-03-22T07:04:19;19.52;;;10.30;;
21647;SDS011;10985;54.182;7.890;2024-03-22T07:06:45;15.43;;;10.13;;
21647;SDS011;10985;54.182;7.890;2024-03-22T07:09:10;13.85;;;9.75;;
21647;SDS011;10985;54.182;7.890;2024-03-22T07:11:36;15.85;;;9.57;;
21647;SDS011;10985;54.182;7.890;2024-03-22T07:14:02;16.20;;;10.43;;
21647;SDS011;10985;54.182;7.890;2024-03-22T07:16:27;19.33;;;11.15;;
21647;SDS011;10985;54.182;7.890;2024-03-22T07:18:53;16.30;;;9.70;;
21647;SDS011;10985;54.182;7.890;2024-03-22T07:21:18;17.30;;;9.75;;
21647;SDS011;10985;54.182;7.890;2024-03-22T07:23:43;17.05;;;9.90;;
21647;SDS011;10985;54.182;7.890;2024-03-22T07:26:09;15.15;;;10.20;;
21647;SDS011;10985;54.182;7.890;2024-03-22T07:28:34;20.42;;;11.43;;
21647;SDS011;10985;54.182;7.890;2024-03-22T07:31:00;17.10;;;10.18;;
21647;SDS011;10985;54.182;7.890;2024-03-22T07:33:25;15.40;;;9.63;;
21647;SDS011;10985;54.182;7.890;2024-03-22T07:35:51;19.77;;;9.93;;
21647;SDS011;10985;54.182;7.890;2024-03-22T07:38:19;13.38;;;10.13;;
21647;SDS011;10985;54.182;7.890;2024-03-22T07:40:44;16.77;;;10.05;;
21647;SDS011;10985;54.182;7.890;2024-03-22T07:43:10;15.10;;;9.30;;
21647;SDS011;10985;54.182;7.890;2024-03-22T07:45:35;15.40;;;9.45;;
21647;SDS011;10985;54.182;7.890;2024-03-22T07:48:01;11.80;;;8.80;;
21647;SDS011;10985;54.182;7.890;2024-03-22T07:50:27;14.60;;;9.23;;
21647;SDS011;10985;54.182;7.890;2024-03-22T07:52:52;15.15;;;9.40;;
21647;SDS011;10985;54.182;7.890;2024-03-22T07:55:18;13.02;;;8.75;;
21647;SDS011;10985;54.182;7.890;2024-03-22T07:57:43;13.25;;;8.98;;
21647;SDS011;10985;54.182;7.890;2024-03-22T08:00:09;15.50;;;9.55;;
21647;SDS011;10985;54.182;7.890;2024-03-22T08:02:35;13.38;;;9.38;;
21647;SDS011;10985;54.182;7.890;2024-03-22T08:05:01;14.10;;;9.10;;
21647;SDS011;10985;54.182;7.890;2024-03-22T08:07:26;14.77;;;9.18;;
21647;SDS011;10985;54.182;7.890;2024-03-22T08:09:52;11.75;;;8.30;;
21647;SDS011;10985;54.182;7.890;2024-03-22T08:12:18;11.93;;;8.88;;
21647;SDS011;10985;54.182;7.890;2024-03-22T08:14:44;12.52;;;9.13;;
21647;SDS011;10985;54.182;7.890;2024-03-22T08:17:10;11.02;;;8.73;;
21647;SDS011;10985;54.182;7.890;2024-03-22T08:19:35;12.38;;;8.13;;
21647;SDS011;10985;54.182;7.890;2024-03-22T08:22:02;11.93;;;8.48;;
21647;SDS011;10985;54.182;7.890;2024-03-22T08:24:27;11.48;;;8.23;;
21647;SDS011;10985;54.182;7.890;2024-03-22T08:26:52;15.02;;;8.25;;
21647;SDS011;10985;54.182;7.890;2024-03-22T08:29:18;9.85;;;7.90;;
21647;SDS011;10985;54.182;7.890;2024-03-22T08:31:44;10.23;;;8.25;;
21647;SDS011;10985;54.182;7.890;2024-03-22T08:34:09;12.07;;;7.97;;
21647;SDS011;10985;54.182;7.890;2024-03-22T08:36:35;9.60;;;7.57;;
21647;SDS011;10985;54.182;7.890;2024-03-22T08:39:01;11.80;;;7.82;;
21647;SDS011;10985;54.182;7.890;2024-03-22T08:41:27;11.40;;;8.10;;
21647;SDS011;10985;54.182;7.890;2024-03-22T08:43:53;10.73;;;7.40;;
21647;SDS011;10985;54.182;7.890;2024-03-22T08:46:19;8.50;;;7.60;;
21647;SDS011;10985;54.182;7.890;2024-03-22T08:48:46;8.80;;;7.40;;
21647;SDS011;10985;54.182;7.890;2024-03-22T08:51:12;8.35;;;7.28;;
21647;SDS011;10985;54.182;7.890;2024-03-22T08:53:37;9.40;;;7.20;;
21647;SDS011;10985;54.182;7.890;2024-03-22T08:56:03;7.43;;;6.72;;
21647;SDS011;10985;54.182;7.890;2024-03-22T08:58:28;7.57;;;6.63;;
21647;SDS011;10985;54.182;7.890;2024-03-22T09:00:54;7.25;;;6.03;;
21647;SDS011;10985;54.182;7.890;2024-03-22T09:03:20;8.10;;;6.47;;
21647;SDS011;10985;54.182;7.890;2024-03-22T09:05:46;8.25;;;6.43;;
21647;SDS011;10985;54.182;7.890;2024-03-22T09:08:12;6.38;;;5.78;;
21647;SDS011;10985;54.182;7.890;2024-03-22T09:10:37;5.75;;;5.13;;
21647;SDS011;10985;54.182;7.890;2024-03-22T09:13:03;5.95;;;5.32;;
21647;SDS011;10985;54.182;7.890;2024-03-22T09:15:28;5.78;;;5.25;;
21647;SDS011;10985;54.182;7.890;2024-03-22T09:17:54;5.53;;;5.00;;
21647;SDS011;10985;54.182;7.890;2024-03-22T09:20:19;6.57;;;5.88;;
21647;SDS011;10985;54.182;7.890;2024-03-22T09:22:45;4.70;;;4.30;;
21647;SDS011;10985;54.182;7.890;2024-03-22T09:25:11;4.88;;;4.20;;
21647;SDS011;10985;54.182;7.890;2024-03-22T09:27:37;5.90;;;4.82;;
21647;SDS011;10985;54.182;7.890;2024-03-22T09:30:02;4.28;;;3.85;;
21647;SDS011;10985;54.182;7.890;2024-03-22T09:32:29;4.25;;;3.95;;
21647;SDS011;10985;54.182;7.890;2024-03-22T09:34:55;4.13;;;3.83;;
21647;SDS011;10985;54.182;7.890;2024-03-22T09:37:20;4.47;;;3.72;;
21647;SDS011;10985;54.182;7.890;2024-03-22T09:39:45;4.15;;;3.85;;
21647;SDS011;10985;54.182;7.890;2024-03-22T09:42:13;4.18;;;3.80;;
21647;SDS011;10985;54.182;7.890;2024-03-22T09:44:49;3.83;;;3.53;;
21647;SDS011;10985;54.182;7.890;2024-03-22T09:47:15;3.65;;;3.45;;
21647;SDS011;10985;54.182;7.890;2024-03-22T09:49:42;3.67;;;3.38;;
21647;SDS011;10985;54.182;7.890;2024-03-22T09:52:12;3.38;;;3.08;;
21647;SDS011;10985;54.182;7.890;2024-03-22T09:54:38;3.40;;;3.10;;
21647;SDS011;10985;54.182;7.890;2024-03-22T09:57:04;2.95;;;2.75;;
21647;SDS011;10985;54.182;7.890;2024-03-22T09:59:29;3.58;;;3.38;;
21647;SDS011;10985;54.182;7.890;2024-03-22T10:01:55;3.53;;;3.25;;
21647;SDS011;10985;54.182;7.890;2024-03-22T10:04:22;4.15;;;3.70;;
21647;SDS011;10985;54.182;7.890;2024-03-22T10:06:48;3.13;;;2.92;;
21647;SDS011;10985;54.182;7.890;2024-03-22T10:09:14;3.60;;;3.35;;
21647;SDS011;10985;54.182;7.890;2024-03-22T10:11:41;2.97;;;2.78;;
21647;SDS011;10985;54.182;7.890;2024-03-22T10:14:06;3.55;;;3.28;;
21647;SDS011;10985;54.182;7.890;2024-03-22T10:16:33;3.20;;;3.00;;
21647;SDS011;10985;54.182;7.890;2024-03-22T10:19:00;3.58;;;3.38;;
21647;SDS011;10985;54.182;7.890;2024-03-22T10:21:25;3.17;;;2.97;;
21647;SDS011;10985;54.182;7.890;2024-03-22T10:23:53;3.20;;;2.90;;
21647;SDS011;10985;54.182;7.890;2024-03-22T10:26:18;3.28;;;3.08;;
21647;SDS011;10985;54.182;7.890;2024-03-22T10:28:45;3.58;;;3.20;;
21647;SDS011;10985;54.182;7.890;2024-03-22T10:31:12;3.10;;;2.83;;
21647;SDS011;10985;54.182;7.890;2024-03-22T10:33:38;3.20;;;2.90;;
21647;SDS011;10985;54.182;7.890;2024-03-22T10:36:05;2.67;;;2.58;;
21647;SDS011;10985;54.182;7.890;2024-03-22T10:38:32;3.00;;;2.80;;
21647;SDS011;10985;54.182;7.890;2024-03-22T10:40:58;2.83;;;2.63;;
21647;SDS011;10985;54.182;7.890;2024-03-22T10:43:25;3.10;;;2.88;;
21647;SDS011;10985;54.182;7.890;2024-03-22T10:45:51;3.05;;;2.75;;
21647;SDS011;10985;54.182;7.890;2024-03-22T10:48:20;2.83;;;2.50;;
21647;SDS011;10985;54.182;7.890;2024-03-22T10:50:48;2.95;;;2.75;;
21647;SDS011;10985;54.182;7.890;2024-03-22T10:53:16;3.35;;;2.83;;
21647;SDS011;10985;54.182;7.890;2024-03-22T10:55:45;3.13;;;2.38;;
21647;SDS011;10985;54.182;7.890;2024-03-22T10:58:16;3.97;;;2.72;;
21647;SDS011;10985;54.182;7.890;2024-03-22T11:00:42;3.38;;;2.50;;
21647;SDS011;10985;54.182;7.890;2024-03-22T11:03:08;2.67;;;2.47;;
21647;SDS011;10985;54.182;7.890;2024-03-22T11:05:34;2.65;;;2.45;;
21647;SDS011;10985;54.182;7.890;2024-03-22T11:08:09;3.58;;;2.95;;
21647;SDS011;10985;54.182;7.890;2024-03-22T11:10:35;2.88;;;2.40;;
21647;SDS011;10985;54.182;7.890;2024-03-22T11:13:01;3.10;;;2.90;;
21647;SDS011;10985;54.182;7.890;2024-03-22T11:15:28;3.72;;;2.97;;
21647;SDS011;10985;54.182;7.890;2024-03-22T11:17:54;3.63;;;3.00;;
21647;SDS011;10985;54.182;7.890;2024-03-22T11:20:20;4.60;;;2.75;;
21647;SDS011;10985;54.182;7.890;2024-03-22T11:22:46;4.55;;;2.97;;
21647;SDS011;10985;54.182;7.890;2024-03-22T11:25:11;4.35;;;3.15;;
21647;SDS011;10985;54.182;7.890;2024-03-22T11:27:37;3.40;;;2.97;;
21647;SDS011;10985;54.182;7.890;2024-03-22T11:30:02;4.50;;;2.97;;
21647;SDS011;10985;54.182;7.890;2024-03-22T11:32:29;2.78;;;2.47;;
21647;SDS011;10985;54.182;7.890;2024-03-22T11:34:55;3.60;;;2.75;;
21647;SDS011;10985;54.182;7.890;2024-03-22T11:37:21;2.83;;;2.53;;
21647;SDS011;10985;54.182;7.890;2024-03-22T11:39:46;4.47;;;3.05;;
21647;SDS011;10985;54.182;7.890;2024-03-22T11:42:13;2.90;;;2.70;;
21647;SDS011;10985;54.182;7.890;2024-03-22T11:44:39;3.85;;;2.78;;
21647;SDS011;10985;54.182;7.890;2024-03-22T11:47:05;4.85;;;2.90;;
21647;SDS011;10985;54.182;7.890;2024-03-22T11:49:31;3.75;;;2.58;;
21647;SDS011;10985;54.182;7.890;2024-03-22T11:51:56;2.92;;;2.53;;
21647;SDS011;10985;54.182;7.890;2024-03-22T11:54:22;2.50;;;2.30;;
21647;SDS011;10985;54.182;7.890;2024-03-22T11:56:50;3.00;;;2.30;;
21647;SDS011;10985;54.182;7.890;2024-03-22T11:59:19;4.85;;;2.92;;
21647;SDS011;10985;54.182;7.890;2024-03-22T12:01:45;3.28;;;2.97;;
21647;SDS011;10985;54.182;7.890;2024-03-22T12:04:11;3.85;;;2.90;;
21647;SDS011;10985;54.182;7.890;2024-03-22T12:06:41;4.90;;;2.47;;
21647;SDS011;10985;54.182;7.890;2024-03-22T12:09:07;4.10;;;2.90;;
21647;SDS011;10985;54.182;7.890;2024-03-22T12:11:34;2.83;;;2.47;;
21647;SDS011;10985;54.182;7.890;2024-03-22T12:14:00;5.05;;;2.97;;
21647;SDS011;10985;54.182;7.890;2024-03-22T12:16:25;4.78;;;2.70;;
21647;SDS011;10985;54.182;7.890;2024-03-22T12:18:51;3.20;;;2.90;;
21647;SDS011;10985;54.182;7.890;2024-03-22T12:21:16;3.25;;;2.50;;
21647;SDS011;10985;54.182;7.890;2024-03-22T12:23:42;3.63;;;2.70;;
21647;SDS011;10985;54.182;7.890;2024-03-22T12:26:07;5.40;;;3.10;;
21647;SDS011;10985;54.182;7.890;2024-03-22T12:28:32;3.47;;;2.70;;
21647;SDS011;10985;54.182;7.890;2024-03-22T12:30:58;3.63;;;2.60;;
21647;SDS011;10985;54.182;7.890;2024-03-22T12:33:23;3.50;;;2.70;;
21647;SDS011;10985;54.182;7.890;2024-03-22T12:35:49;2.67;;;2.47;;
21647;SDS011;10985;54.182;7.890;2024-03-22T12:38:14;3.78;;;2.70;;
21647;SDS011;10985;54.182;7.890;2024-03-22T12:40:40;4.38;;;2.70;;
21647;SDS011;10985;54.182;7.890;2024-03-22T12:43:06;4.03;;;2.78;;
21647;SDS011;10985;54.182;7.890;2024-03-22T12:45:33;3.28;;;2.72;;
21647;SDS011;10985;54.182;7.890;2024-03-22T12:47:59;4.88;;;2.75;;
21647;SDS011;10985;54.182;7.890;2024-03-22T12:50:25;4.82;;;3.00;;
21647;SDS011;10985;54.182;7.890;2024-03-22T12:52:51;3.03;;;2.72;;
21647;SDS011;10985;54.182;7.890;2024-03-22T12:55:17;5.07;;;3.10;;
21647;SDS011;10985;54.182;7.890;2024-03-22T12:57:42;4.65;;;2.67;;
21647;SDS011;10985;54.182;7.890;2024-03-22T13:00:08;3.67;;;2.92;;
21647;SDS011;10985;54.182;7.890;2024-03-22T13:02:38;4.75;;;3.22;;
21647;SDS011;10985;54.182;7.890;2024-03-22T13:05:05;6.72;;;2.88;;
21647;SDS011;10985;54.182;7.890;2024-03-22T13:07:31;5.18;;;2.83;;
21647;SDS011;10985;54.182;7.890;2024-03-22T13:09:57;4.25;;;2.83;;
21647;SDS011;10985;54.182;7.890;2024-03-22T13:12:25;3.55;;;2.70;;
21647;SDS011;10985;54.182;7.890;2024-03-22T13:14:50;5.13;;;3.40;;
21647;SDS011;10985;54.182;7.890;2024-03-22T13:17:17;4.03;;;2.80;;
21647;SDS011;10985;54.182;7.890;2024-03-22T13:19:42;3.50;;;2.60;;
21647;SDS011;10985;54.182;7.890;2024-03-22T13:22:08;5.07;;;3.65;;
21647;SDS011;10985;54.182;7.890;2024-03-22T13:24:34;5.25;;;3.40;;
21647;SDS011;10985;54.182;7.890;2024-03-22T13:27:00;6.18;;;4.05;;
21647;SDS011;10985;54.182;7.890;2024-03-22T13:29:26;9.88;;;3.80;;
21647;SDS011;10985;54.182;7.890;2024-03-22T13:31:51;6.40;;;3.70;;
21647;SDS011;10985;54.182;7.890;2024-03-22T13:34:17;6.75;;;3.30;;
21647;SDS011;10985;54.182;7.890;2024-03-22T13:36:42;7.18;;;3.70;;
21647;SDS011;10985;54.182;7.890;2024-03-22T13:39:08;5.45;;;3.22;;
21647;SDS011;10985;54.182;7.890;2024-03-22T13:41:35;7.18;;;3.13;;
21647;SDS011;10985;54.182;7.890;2024-03-22T13:44:01;5.88;;;3.35;;
21647;SDS011;10985;54.182;7.890;2024-03-22T13:46:31;3.55;;;3.08;;
21647;SDS011;10985;54.182;7.890;2024-03-22T13:48:56;4.35;;;3.03;;
21647;SDS011;10985;54.182;7.890;2024-03-22T13:51:22;8.60;;;3.45;;
21647;SDS011;10985;54.182;7.890;2024-03-22T13:53:50;5.43;;;2.65;;
21647;SDS011;10985;54.182;7.890;2024-03-22T13:56:15;5.75;;;3.80;;
21647;SDS011;10985;54.182;7.890;2024-03-22T13:58:40;5.70;;;3.10;;
21647;SDS011;10985;54.182;7.890;2024-03-22T14:01:06;7.15;;;3.35;;
21647;SDS011;10985;54.182;7.890;2024-03-22T14:03:32;4.28;;;3.20;;
21647;SDS011;10985;54.182;7.890;2024-03-22T14:05:58;5.00;;;3.45;;
21647;SDS011;10985;54.182;7.890;2024-03-22T14:08:23;5.65;;;3.17;;
21647;SDS011;10985;54.182;7.890;2024-03-22T14:10:49;6.47;;;3.30;;
21647;SDS011;10985;54.182;7.890;2024-03-22T14:13:14;7.00;;;3.15;;
21647;SDS011;10985;54.182;7.890;2024-03-22T14:15:40;7.85;;;3.70;;
21647;SDS011;10985;54.182;7.890;2024-03-22T14:18:06;5.07;;;3.00;;
21647;SDS011;10985;54.182;7.890;2024-03-22T14:20:31;6.70;;;3.25;;
21647;SDS011;10985;54.182;7.890;2024-03-22T14:22:57;5.40;;;3.22;;
21647;SDS011;10985;54.182;7.890;2024-03-22T14:25:22;6.82;;;3.40;;
21647;SDS011;10985;54.182;7.890;2024-03-22T14:27:47;5.78;;;3.15;;